sensor_id;sensor_type;location;lat;lon;timestamp;P1;durP1;ratioP1;P2;durP2;ratioP2
25503;SDS011;13410;52.114;5.718;2022-11-15T00:00:50;59.88;;;29.40;;
25503;SDS011;13410;52.114;5.718;2022-11-15T00:03:16;57.20;;;28.02;;
25503;SDS011;13410;52.114;5.718;2022-11-15T00:05:43;47.78;;;23.98;;
25503;SDS011;13410;52.114;5.718;2022-11-15T00:08:09;43.75;;;21.45;;
25503;SDS011;13410;52.114;5.718;2022-11-15T00:10:35;45.28;;;22.02;;
25503;SDS011;13410;52.114;5.718;2022-11-15T00:13:08;46.15;;;22.02;;
25503;SDS011;13410;52.114;5.718;2022-11-15T00:15:36;44.63;;;21.23;;
25503;SDS011;13410;52.114;5.718;2022-11-15T00:18:04;42.53;;;21.73;;
25503;SDS011;13410;52.114;5.718;2022-11-15T00:20:31;47.50;;;21.98;;
25503;SDS011;13410;52.114;5.718;2022-11-15T00:22:59;50.40;;;22.92;;
25503;SDS011;13410;52.114;5.718;2022-11-15T00:25:25;52.45;;;23.02;;
25503;SDS011;13410;52.114;5.718;2022-11-15T00:27:54;53.75;;;23.58;;
25503;SDS011;13410;52.114;5.718;2022-11-15T00:30:21;46.90;;;21.92;;
25503;SDS011;13410;52.114;5.718;2022-11-15T00:32:47;50.45;;;23.23;;
25503;SDS011;13410;52.114;5.718;2022-11-15T00:35:12;51.38;;;21.92;;
25503;SDS011;13410;52.114;5.718;2022-11-15T00:37:38;50.80;;;23.63;;
25503;SDS011;13410;52.114;5.718;2022-11-15T00:40:03;52.67;;;23.15;;
25503;SDS011;13410;52.114;5.718;2022-11-15T00:42:29;52.17;;;23.83;;
25503;SDS011;13410;52.114;5.718;2022-11-15T00:44:55;52.28;;;23.50;;
25503;SDS011;13410;52.114;5.718;2022-11-15T00:47:20;54.40;;;22.63;;
25503;SDS011;13410;52.114;5.718;2022-11-15T00:49:46;49.17;;;23.30;;
25503;SDS011;13410;52.114;5.718;2022-11-15T00:52:11;55.95;;;24.50;;
25503;SDS011;13410;52.114;5.718;2022-11-15T00:54:37;52.92;;;22.90;;
25503;SDS011;13410;52.114;5.718;2022-11-15T00:57:02;53.80;;;24.08;;
25503;SDS011;13410;52.114;5.718;2022-11-15T00:59:29;55.10;;;23.90;;
25503;SDS011;13410;52.114;5.718;2022-11-15T01:01:54;53.90;;;23.80;;
25503;SDS011;13410;52.114;5.718;2022-11-15T01:04:20;53.83;;;23.85;;
25503;SDS011;13410;52.114;5.718;2022-11-15T01:06:45;49.75;;;22.90;;
25503;SDS011;13410;52.114;5.718;2022-11-15T01:09:11;49.03;;;22.90;;
25503;SDS011;13410;52.114;5.718;2022-11-15T01:11:37;45.17;;;22.63;;
25503;SDS011;13410;52.114;5.718;2022-11-15T01:14:02;46.47;;;22.80;;
25503;SDS011;13410;52.114;5.718;2022-11-15T01:16:28;51.15;;;22.65;;
25503;SDS011;13410;52.114;5.718;2022-11-15T01:18:53;50.08;;;22.48;;
25503;SDS011;13410;52.114;5.718;2022-11-15T01:21:19;49.78;;;23.55;;
25503;SDS011;13410;52.114;5.718;2022-11-15T01:23:45;49.13;;;22.75;;
25503;SDS011;13410;52.114;5.718;2022-11-15T01:26:12;47.88;;;22.67;;
25503;SDS011;13410;52.114;5.718;2022-11-15T01:28:39;49.22;;;23.27;;
25503;SDS011;13410;52.114;5.718;2022-11-15T01:31:07;43.25;;;22.73;;
25503;SDS011;13410;52.114;5.718;2022-11-15T01:36:06;43.00;;;22.17;;
25503;SDS011;13410;52.114;5.718;2022-11-15T01:38:33;50.17;;;22.88;;
25503;SDS011;13410;52.114;5.718;2022-11-15T01:40:59;46.47;;;22.40;;
25503;SDS011;13410;52.114;5.718;2022-11-15T01:43:26;44.58;;;21.67;;
25503;SDS011;13410;52.114;5.718;2022-11-15T01:48:33;43.58;;;21.98;;
25503;SDS011;13410;52.114;5.718;2022-11-15T01:50:59;47.15;;;22.50;;
25503;SDS011;13410;52.114;5.718;2022-11-15T01:53:29;40.70;;;20.77;;
25503;SDS011;13410;52.114;5.718;2022-11-15T01:55:55;43.55;;;21.30;;
25503;SDS011;13410;52.114;5.718;2022-11-15T01:58:21;42.25;;;21.50;;
25503;SDS011;13410;52.114;5.718;2022-11-15T02:00:47;41.90;;;22.08;;
25503;SDS011;13410;52.114;5.718;2022-11-15T02:03:14;42.10;;;21.60;;
25503;SDS011;13410;52.114;5.718;2022-11-15T02:05:40;43.45;;;22.48;;
25503;SDS011;13410;52.114;5.718;2022-11-15T02:08:08;43.33;;;23.05;;
25503;SDS011;13410;52.114;5.718;2022-11-15T02:10:44;44.13;;;22.27;;
25503;SDS011;13410;52.114;5.718;2022-11-15T02:13:16;48.25;;;23.42;;
25503;SDS011;13410;52.114;5.718;2022-11-15T02:15:52;44.92;;;22.35;;
25503;SDS011;13410;52.114;5.718;2022-11-15T02:18:39;47.35;;;23.75;;
25503;SDS011;13410;52.114;5.718;2022-11-15T02:23:57;46.63;;;23.23;;
25503;SDS011;13410;52.114;5.718;2022-11-15T02:27:08;44.42;;;23.05;;
25503;SDS011;13410;52.114;5.718;2022-11-15T02:29:48;44.20;;;23.05;;
25503;SDS011;13410;52.114;5.718;2022-11-15T02:33:10;40.85;;;23.25;;
25503;SDS011;13410;52.114;5.718;2022-11-15T02:35:25;44.25;;;23.70;;
25503;SDS011;13410;52.114;5.718;2022-11-15T02:38:09;46.05;;;23.05;;
25503;SDS011;13410;52.114;5.718;2022-11-15T02:40:52;46.60;;;24.13;;
25503;SDS011;13410;52.114;5.718;2022-11-15T02:43:36;43.75;;;22.92;;
25503;SDS011;13410;52.114;5.718;2022-11-15T02:46:26;43.28;;;24.23;;
25503;SDS011;13410;52.114;5.718;2022-11-15T02:49:15;41.67;;;23.85;;
25503;SDS011;13410;52.114;5.718;2022-11-15T02:51:42;42.15;;;22.55;;
25503;SDS011;13410;52.114;5.718;2022-11-15T02:54:14;44.58;;;22.88;;
25503;SDS011;13410;52.114;5.718;2022-11-15T02:56:45;44.33;;;23.15;;
25503;SDS011;13410;52.114;5.718;2022-11-15T02:59:23;41.00;;;22.15;;
25503;SDS011;13410;52.114;5.718;2022-11-15T03:02:05;40.78;;;23.15;;
25503;SDS011;13410;52.114;5.718;2022-11-15T03:04:45;45.40;;;23.67;;
25503;SDS011;13410;52.114;5.718;2022-11-15T03:10:35;42.78;;;22.00;;
25503;SDS011;13410;52.114;5.718;2022-11-15T03:13:21;38.42;;;22.65;;
25503;SDS011;13410;52.114;5.718;2022-11-15T03:16:04;36.80;;;21.73;;
25503;SDS011;13410;52.114;5.718;2022-11-15T03:18:40;42.67;;;22.20;;
25503;SDS011;13410;52.114;5.718;2022-11-15T03:21:08;39.97;;;22.08;;
25503;SDS011;13410;52.114;5.718;2022-11-15T03:23:37;39.85;;;22.58;;
25503;SDS011;13410;52.114;5.718;2022-11-15T03:26:05;41.65;;;23.38;;
25503;SDS011;13410;52.114;5.718;2022-11-15T03:28:36;40.00;;;22.70;;
25503;SDS011;13410;52.114;5.718;2022-11-15T03:31:08;39.88;;;23.17;;
25503;SDS011;13410;52.114;5.718;2022-11-15T03:33:55;41.92;;;23.88;;
25503;SDS011;13410;52.114;5.718;2022-11-15T03:36:24;45.22;;;24.42;;
25503;SDS011;13410;52.114;5.718;2022-11-15T03:38:52;42.80;;;23.48;;
25503;SDS011;13410;52.114;5.718;2022-11-15T03:41:28;45.95;;;23.33;;
25503;SDS011;13410;52.114;5.718;2022-11-15T03:44:11;40.45;;;24.05;;
25503;SDS011;13410;52.114;5.718;2022-11-15T03:50:11;44.30;;;23.50;;
25503;SDS011;13410;52.114;5.718;2022-11-15T03:52:39;47.40;;;23.83;;
25503;SDS011;13410;52.114;5.718;2022-11-15T03:55:07;39.22;;;23.67;;
25503;SDS011;13410;52.114;5.718;2022-11-15T03:57:36;42.00;;;24.38;;
25503;SDS011;13410;52.114;5.718;2022-11-15T04:00:03;41.88;;;24.15;;
25503;SDS011;13410;52.114;5.718;2022-11-15T04:02:29;47.15;;;24.35;;
25503;SDS011;13410;52.114;5.718;2022-11-15T04:04:54;47.03;;;24.40;;
25503;SDS011;13410;52.114;5.718;2022-11-15T04:07:20;43.78;;;23.70;;
25503;SDS011;13410;52.114;5.718;2022-11-15T04:09:46;46.15;;;23.67;;
25503;SDS011;13410;52.114;5.718;2022-11-15T04:12:31;44.38;;;24.08;;
25503;SDS011;13410;52.114;5.718;2022-11-15T04:15:01;45.58;;;24.05;;
25503;SDS011;13410;52.114;5.718;2022-11-15T04:17:33;47.85;;;25.02;;
25503;SDS011;13410;52.114;5.718;2022-11-15T04:20:07;45.25;;;24.13;;
25503;SDS011;13410;52.114;5.718;2022-11-15T04:22:54;43.03;;;23.27;;
25503;SDS011;13410;52.114;5.718;2022-11-15T04:25:39;43.88;;;24.27;;
25503;SDS011;13410;52.114;5.718;2022-11-15T04:28:05;48.42;;;22.92;;
25503;SDS011;13410;52.114;5.718;2022-11-15T04:30:31;44.38;;;24.23;;
25503;SDS011;13410;52.114;5.718;2022-11-15T04:32:56;42.25;;;24.67;;
25503;SDS011;13410;52.114;5.718;2022-11-15T04:35:22;44.50;;;23.65;;
25503;SDS011;13410;52.114;5.718;2022-11-15T04:37:47;42.15;;;23.05;;
25503;SDS011;13410;52.114;5.718;2022-11-15T04:40:13;37.20;;;21.35;;
25503;SDS011;13410;52.114;5.718;2022-11-15T04:42:40;41.40;;;22.60;;
25503;SDS011;13410;52.114;5.718;2022-11-15T04:45:09;41.97;;;22.95;;
25503;SDS011;13410;52.114;5.718;2022-11-15T04:47:35;39.88;;;22.25;;
25503;SDS011;13410;52.114;5.718;2022-11-15T04:50:01;40.67;;;23.83;;
25503;SDS011;13410;52.114;5.718;2022-11-15T04:52:27;40.55;;;22.70;;
25503;SDS011;13410;52.114;5.718;2022-11-15T04:54:52;45.88;;;23.85;;
25503;SDS011;13410;52.114;5.718;2022-11-15T04:57:18;46.15;;;23.02;;
25503;SDS011;13410;52.114;5.718;2022-11-15T04:59:43;40.70;;;21.90;;
25503;SDS011;13410;52.114;5.718;2022-11-15T05:02:09;42.95;;;23.13;;
25503;SDS011;13410;52.114;5.718;2022-11-15T05:04:34;38.28;;;22.23;;
25503;SDS011;13410;52.114;5.718;2022-11-15T05:07:00;38.45;;;22.55;;
25503;SDS011;13410;52.114;5.718;2022-11-15T05:09:26;37.63;;;23.02;;
25503;SDS011;13410;52.114;5.718;2022-11-15T05:11:51;41.50;;;23.20;;
25503;SDS011;13410;52.114;5.718;2022-11-15T05:14:17;41.28;;;23.42;;
25503;SDS011;13410;52.114;5.718;2022-11-15T05:16:42;41.40;;;23.17;;
25503;SDS011;13410;52.114;5.718;2022-11-15T05:19:08;40.63;;;23.63;;
25503;SDS011;13410;52.114;5.718;2022-11-15T05:21:34;42.78;;;23.90;;
25503;SDS011;13410;52.114;5.718;2022-11-15T05:24:00;42.22;;;23.67;;
25503;SDS011;13410;52.114;5.718;2022-11-15T05:26:26;42.60;;;23.85;;
25503;SDS011;13410;52.114;5.718;2022-11-15T05:28:53;45.05;;;23.35;;
25503;SDS011;13410;52.114;5.718;2022-11-15T05:31:20;41.13;;;23.23;;
25503;SDS011;13410;52.114;5.718;2022-11-15T05:33:45;44.95;;;24.52;;
25503;SDS011;13410;52.114;5.718;2022-11-15T05:38:41;45.55;;;23.45;;
25503;SDS011;13410;52.114;5.718;2022-11-15T05:41:06;47.22;;;24.02;;
25503;SDS011;13410;52.114;5.718;2022-11-15T05:43:33;44.80;;;24.45;;
25503;SDS011;13410;52.114;5.718;2022-11-15T05:46:01;41.25;;;24.65;;
25503;SDS011;13410;52.114;5.718;2022-11-15T05:48:29;46.05;;;23.88;;
25503;SDS011;13410;52.114;5.718;2022-11-15T05:50:54;46.65;;;24.10;;
25503;SDS011;13410;52.114;5.718;2022-11-15T05:53:21;46.00;;;24.10;;
25503;SDS011;13410;52.114;5.718;2022-11-15T05:55:49;43.10;;;24.35;;
25503;SDS011;13410;52.114;5.718;2022-11-15T05:58:16;39.08;;;23.75;;
25503;SDS011;13410;52.114;5.718;2022-11-15T06:00:43;44.45;;;23.95;;
25503;SDS011;13410;52.114;5.718;2022-11-15T06:03:08;40.55;;;23.60;;
25503;SDS011;13410;52.114;5.718;2022-11-15T06:05:34;42.50;;;23.65;;
25503;SDS011;13410;52.114;5.718;2022-11-15T06:08:00;43.20;;;23.42;;
25503;SDS011;13410;52.114;5.718;2022-11-15T06:10:26;41.15;;;23.63;;
25503;SDS011;13410;52.114;5.718;2022-11-15T06:12:58;41.88;;;23.73;;
25503;SDS011;13410;52.114;5.718;2022-11-15T06:15:28;43.25;;;23.52;;
25503;SDS011;13410;52.114;5.718;2022-11-15T06:17:56;43.63;;;23.58;;
25503;SDS011;13410;52.114;5.718;2022-11-15T06:20:23;49.25;;;24.13;;
25503;SDS011;13410;52.114;5.718;2022-11-15T06:22:49;46.22;;;23.17;;
25503;SDS011;13410;52.114;5.718;2022-11-15T06:25:15;44.15;;;24.42;;
25503;SDS011;13410;52.114;5.718;2022-11-15T06:27:40;42.15;;;23.38;;
25503;SDS011;13410;52.114;5.718;2022-11-15T06:30:06;45.30;;;24.38;;
25503;SDS011;13410;52.114;5.718;2022-11-15T06:32:32;48.10;;;24.65;;
25503;SDS011;13410;52.114;5.718;2022-11-15T06:34:58;39.83;;;24.05;;
25503;SDS011;13410;52.114;5.718;2022-11-15T06:37:23;42.70;;;22.98;;
25503;SDS011;13410;52.114;5.718;2022-11-15T06:39:49;44.35;;;24.70;;
25503;SDS011;13410;52.114;5.718;2022-11-15T06:42:14;44.05;;;24.27;;
25503;SDS011;13410;52.114;5.718;2022-11-15T06:44:40;41.67;;;22.85;;
25503;SDS011;13410;52.114;5.718;2022-11-15T06:47:05;40.90;;;22.23;;
25503;SDS011;13410;52.114;5.718;2022-11-15T06:49:31;41.15;;;22.67;;
25503;SDS011;13410;52.114;5.718;2022-11-15T06:51:56;40.10;;;22.75;;
25503;SDS011;13410;52.114;5.718;2022-11-15T06:54:22;40.15;;;21.95;;
25503;SDS011;13410;52.114;5.718;2022-11-15T06:56:47;43.03;;;22.30;;
25503;SDS011;13410;52.114;5.718;2022-11-15T06:59:13;40.30;;;22.52;;
25503;SDS011;13410;52.114;5.718;2022-11-15T07:01:38;41.00;;;21.83;;
25503;SDS011;13410;52.114;5.718;2022-11-15T07:04:04;43.38;;;22.52;;
25503;SDS011;13410;52.114;5.718;2022-11-15T07:06:30;36.50;;;21.77;;
25503;SDS011;13410;52.114;5.718;2022-11-15T07:08:55;37.92;;;21.05;;
25503;SDS011;13410;52.114;5.718;2022-11-15T07:11:22;35.38;;;20.92;;
25503;SDS011;13410;52.114;5.718;2022-11-15T07:13:47;38.22;;;21.25;;
25503;SDS011;13410;52.114;5.718;2022-11-15T07:16:13;38.80;;;20.95;;
25503;SDS011;13410;52.114;5.718;2022-11-15T07:18:39;37.38;;;21.42;;
25503;SDS011;13410;52.114;5.718;2022-11-15T07:21:06;36.58;;;21.58;;
25503;SDS011;13410;52.114;5.718;2022-11-15T07:23:35;37.45;;;21.55;;
25503;SDS011;13410;52.114;5.718;2022-11-15T07:26:03;35.33;;;20.33;;
25503;SDS011;13410;52.114;5.718;2022-11-15T07:28:28;37.33;;;21.20;;
25503;SDS011;13410;52.114;5.718;2022-11-15T07:30:54;32.65;;;19.98;;
25503;SDS011;13410;52.114;5.718;2022-11-15T07:33:19;36.40;;;21.13;;
25503;SDS011;13410;52.114;5.718;2022-11-15T07:35:45;40.47;;;20.52;;
25503;SDS011;13410;52.114;5.718;2022-11-15T07:38:14;35.22;;;20.98;;
25503;SDS011;13410;52.114;5.718;2022-11-15T07:40:41;42.30;;;27.33;;
25503;SDS011;13410;52.114;5.718;2022-11-15T07:43:07;80.95;;;45.00;;
25503;SDS011;13410;52.114;5.718;2022-11-15T07:45:33;49.55;;;28.20;;
25503;SDS011;13410;52.114;5.718;2022-11-15T07:48:06;44.72;;;25.40;;
25503;SDS011;13410;52.114;5.718;2022-11-15T07:50:31;39.13;;;22.90;;
25503;SDS011;13410;52.114;5.718;2022-11-15T07:52:58;43.85;;;25.23;;
25503;SDS011;13410;52.114;5.718;2022-11-15T07:55:25;39.58;;;25.40;;
25503;SDS011;13410;52.114;5.718;2022-11-15T07:58:04;38.45;;;23.15;;
25503;SDS011;13410;52.114;5.718;2022-11-15T08:00:32;40.90;;;26.17;;
25503;SDS011;13410;52.114;5.718;2022-11-15T08:03:08;35.28;;;23.05;;
25503;SDS011;13410;52.114;5.718;2022-11-15T08:05:36;42.15;;;29.88;;
25503;SDS011;13410;52.114;5.718;2022-11-15T08:08:03;31.23;;;19.83;;
25503;SDS011;13410;52.114;5.718;2022-11-15T08:10:28;35.67;;;20.55;;
25503;SDS011;13410;52.114;5.718;2022-11-15T08:12:58;36.80;;;22.38;;
25503;SDS011;13410;52.114;5.718;2022-11-15T08:15:31;43.85;;;26.98;;
25503;SDS011;13410;52.114;5.718;2022-11-15T08:17:58;33.58;;;21.98;;
25503;SDS011;13410;52.114;5.718;2022-11-15T08:20:25;46.97;;;29.42;;
25503;SDS011;13410;52.114;5.718;2022-11-15T08:22:56;81.88;;;55.22;;
25503;SDS011;13410;52.114;5.718;2022-11-15T08:25:23;43.72;;;31.50;;
25503;SDS011;13410;52.114;5.718;2022-11-15T08:27:53;52.25;;;35.10;;
25503;SDS011;13410;52.114;5.718;2022-11-15T08:30:20;64.53;;;45.83;;
25503;SDS011;13410;52.114;5.718;2022-11-15T08:32:46;69.28;;;52.92;;
25503;SDS011;13410;52.114;5.718;2022-11-15T08:35:12;37.95;;;24.23;;
25503;SDS011;13410;52.114;5.718;2022-11-15T08:37:37;28.65;;;20.25;;
25503;SDS011;13410;52.114;5.718;2022-11-15T08:40:03;30.88;;;19.38;;
25503;SDS011;13410;52.114;5.718;2022-11-15T08:42:29;26.65;;;17.20;;
25503;SDS011;13410;52.114;5.718;2022-11-15T08:44:55;31.38;;;20.88;;
25503;SDS011;13410;52.114;5.718;2022-11-15T08:47:20;26.50;;;18.55;;
25503;SDS011;13410;52.114;5.718;2022-11-15T08:49:47;32.05;;;22.92;;
25503;SDS011;13410;52.114;5.718;2022-11-15T08:52:13;25.75;;;18.48;;
25503;SDS011;13410;52.114;5.718;2022-11-15T08:54:39;25.95;;;17.40;;
25503;SDS011;13410;52.114;5.718;2022-11-15T08:57:04;27.88;;;19.63;;
25503;SDS011;13410;52.114;5.718;2022-11-15T08:59:31;29.55;;;19.13;;
25503;SDS011;13410;52.114;5.718;2022-11-15T09:01:56;28.02;;;18.77;;
25503;SDS011;13410;52.114;5.718;2022-11-15T09:04:22;29.17;;;19.55;;
25503;SDS011;13410;52.114;5.718;2022-11-15T09:06:47;24.00;;;15.75;;
25503;SDS011;13410;52.114;5.718;2022-11-15T09:09:15;28.85;;;19.10;;
25503;SDS011;13410;52.114;5.718;2022-11-15T09:11:40;26.25;;;16.27;;
25503;SDS011;13410;52.114;5.718;2022-11-15T09:14:06;30.25;;;17.73;;
25503;SDS011;13410;52.114;5.718;2022-11-15T09:16:31;25.85;;;17.38;;
25503;SDS011;13410;52.114;5.718;2022-11-15T09:18:57;25.70;;;17.45;;
25503;SDS011;13410;52.114;5.718;2022-11-15T09:21:22;27.02;;;17.13;;
25503;SDS011;13410;52.114;5.718;2022-11-15T09:23:51;33.00;;;22.50;;
25503;SDS011;13410;52.114;5.718;2022-11-15T09:26:17;27.27;;;18.60;;
25503;SDS011;13410;52.114;5.718;2022-11-15T09:28:43;23.60;;;16.20;;
25503;SDS011;13410;52.114;5.718;2022-11-15T09:31:09;27.20;;;17.10;;
25503;SDS011;13410;52.114;5.718;2022-11-15T09:33:35;26.63;;;16.08;;
25503;SDS011;13410;52.114;5.718;2022-11-15T09:36:02;26.88;;;15.80;;
25503;SDS011;13410;52.114;5.718;2022-11-15T09:38:29;23.38;;;15.57;;
25503;SDS011;13410;52.114;5.718;2022-11-15T09:41:13;21.92;;;14.75;;
25503;SDS011;13410;52.114;5.718;2022-11-15T09:44:16;22.00;;;13.90;;
25503;SDS011;13410;52.114;5.718;2022-11-15T09:49:39;17.88;;;13.13;;
25503;SDS011;13410;52.114;5.718;2022-11-15T09:52:06;17.25;;;11.32;;
25503;SDS011;13410;52.114;5.718;2022-11-15T09:54:37;17.42;;;10.95;;
25503;SDS011;13410;52.114;5.718;2022-11-15T09:57:05;16.17;;;10.20;;
25503;SDS011;13410;52.114;5.718;2022-11-15T10:05:24;16.13;;;9.85;;
25503;SDS011;13410;52.114;5.718;2022-11-15T10:10:39;16.38;;;9.30;;
25503;SDS011;13410;52.114;5.718;2022-11-15T10:13:24;11.15;;;8.18;;
25503;SDS011;13410;52.114;5.718;2022-11-15T10:15:53;12.27;;;8.63;;
25503;SDS011;13410;52.114;5.718;2022-11-15T10:21:15;11.35;;;7.72;;
25503;SDS011;13410;52.114;5.718;2022-11-15T10:23:44;10.18;;;7.30;;
25503;SDS011;13410;52.114;5.718;2022-11-15T10:26:11;11.57;;;7.80;;
25503;SDS011;13410;52.114;5.718;2022-11-15T10:28:41;9.05;;;7.07;;
25503;SDS011;13410;52.114;5.718;2022-11-15T10:31:28;10.18;;;7.28;;
25503;SDS011;13410;52.114;5.718;2022-11-15T10:34:11;13.35;;;8.75;;
25503;SDS011;13410;52.114;5.718;2022-11-15T10:36:43;13.65;;;8.32;;
25503;SDS011;13410;52.114;5.718;2022-11-15T10:41:39;9.98;;;6.38;;
25503;SDS011;13410;52.114;5.718;2022-11-15T10:46:46;8.07;;;5.60;;
25503;SDS011;13410;52.114;5.718;2022-11-15T10:49:24;8.35;;;5.28;;
25503;SDS011;13410;52.114;5.718;2022-11-15T10:57:14;8.98;;;6.55;;
25503;SDS011;13410;52.114;5.718;2022-11-15T10:59:44;8.65;;;6.35;;
25503;SDS011;13410;52.114;5.718;2022-11-15T11:02:32;11.55;;;6.18;;
25503;SDS011;13410;52.114;5.718;2022-11-15T11:05:03;9.43;;;5.68;;
25503;SDS011;13410;52.114;5.718;2022-11-15T11:07:47;10.80;;;6.68;;
25503;SDS011;13410;52.114;5.718;2022-11-15T11:10:26;8.70;;;6.68;;
25503;SDS011;13410;52.114;5.718;2022-11-15T11:12:52;8.45;;;5.43;;
25503;SDS011;13410;52.114;5.718;2022-11-15T11:15:18;6.18;;;4.50;;
25503;SDS011;13410;52.114;5.718;2022-11-15T11:20:56;6.72;;;4.20;;
25503;SDS011;13410;52.114;5.718;2022-11-15T11:31:36;4.53;;;3.17;;
25503;SDS011;13410;52.114;5.718;2022-11-15T11:37:28;5.43;;;2.95;;
25503;SDS011;13410;52.114;5.718;2022-11-15T11:43:04;5.60;;;3.10;;
25503;SDS011;13410;52.114;5.718;2022-11-15T11:48:46;13.93;;;7.97;;
25503;SDS011;13410;52.114;5.718;2022-11-15T11:51:22;48.03;;;21.85;;
25503;SDS011;13410;52.114;5.718;2022-11-15T11:54:10;21.13;;;12.63;;
25503;SDS011;13410;52.114;5.718;2022-11-15T11:56:56;28.73;;;16.10;;
25503;SDS011;13410;52.114;5.718;2022-11-15T12:02:16;18.35;;;9.45;;
25503;SDS011;13410;52.114;5.718;2022-11-15T12:04:53;35.05;;;21.08;;
25503;SDS011;13410;52.114;5.718;2022-11-15T12:07:40;12.68;;;8.30;;
25503;SDS011;13410;52.114;5.718;2022-11-15T12:12:56;5.55;;;3.80;;
25503;SDS011;13410;52.114;5.718;2022-11-15T12:15:33;7.00;;;3.33;;
25503;SDS011;13410;52.114;5.718;2022-11-15T12:18:04;5.95;;;3.00;;
25503;SDS011;13410;52.114;5.718;2022-11-15T12:20:37;9.40;;;2.80;;
25503;SDS011;13410;52.114;5.718;2022-11-15T12:26:02;10.68;;;5.53;;
25503;SDS011;13410;52.114;5.718;2022-11-15T12:33:48;5.30;;;2.58;;
25503;SDS011;13410;52.114;5.718;2022-11-15T12:41:29;4.60;;;2.00;;
25503;SDS011;13410;52.114;5.718;2022-11-15T12:44:00;4.63;;;1.92;;
25503;SDS011;13410;52.114;5.718;2022-11-15T12:48:56;4.88;;;1.90;;
25503;SDS011;13410;52.114;5.718;2022-11-15T13:02:20;5.18;;;1.75;;
25503;SDS011;13410;52.114;5.718;2022-11-15T13:04:48;7.82;;;4.30;;
25503;SDS011;13410;52.114;5.718;2022-11-15T13:10:00;4.78;;;1.65;;
25503;SDS011;13410;52.114;5.718;2022-11-15T13:15:01;5.13;;;1.60;;
25503;SDS011;13410;52.114;5.718;2022-11-15T13:17:50;6.05;;;1.65;;
25503;SDS011;13410;52.114;5.718;2022-11-15T13:22:50;8.15;;;1.85;;
25503;SDS011;13410;52.114;5.718;2022-11-15T13:30:39;3.35;;;1.80;;
25503;SDS011;13410;52.114;5.718;2022-11-15T13:33:14;3.80;;;1.95;;
25503;SDS011;13410;52.114;5.718;2022-11-15T13:35:42;9.50;;;6.97;;
25503;SDS011;13410;52.114;5.718;2022-11-15T13:38:33;10.30;;;6.03;;
25503;SDS011;13410;52.114;5.718;2022-11-15T13:41:20;7.57;;;3.17;;
25503;SDS011;13410;52.114;5.718;2022-11-15T13:43:54;5.72;;;1.80;;
25503;SDS011;13410;52.114;5.718;2022-11-15T13:46:31;5.53;;;1.70;;
25503;SDS011;13410;52.114;5.718;2022-11-15T13:48:59;3.92;;;2.45;;
25503;SDS011;13410;52.114;5.718;2022-11-15T13:56:45;7.07;;;1.40;;
25503;SDS011;13410;52.114;5.718;2022-11-15T13:59:33;4.82;;;1.30;;
25503;SDS011;13410;52.114;5.718;2022-11-15T14:02:12;3.83;;;2.40;;
25503;SDS011;13410;52.114;5.718;2022-11-15T14:04:56;4.82;;;2.40;;
25503;SDS011;13410;52.114;5.718;2022-11-15T14:07:27;2.90;;;0.80;;
25503;SDS011;13410;52.114;5.718;2022-11-15T14:09:54;3.47;;;1.02;;
25503;SDS011;13410;52.114;5.718;2022-11-15T14:12:22;3.42;;;1.00;;
25503;SDS011;13410;52.114;5.718;2022-11-15T14:14:54;2.83;;;1.17;;
25503;SDS011;13410;52.114;5.718;2022-11-15T14:17:21;6.82;;;1.35;;
25503;SDS011;13410;52.114;5.718;2022-11-15T14:19:59;6.32;;;1.00;;
25503;SDS011;13410;52.114;5.718;2022-11-15T14:22:25;4.72;;;1.20;;
25503;SDS011;13410;52.114;5.718;2022-11-15T14:27:40;6.45;;;2.78;;
25503;SDS011;13410;52.114;5.718;2022-11-15T14:30:12;12.02;;;7.88;;
25503;SDS011;13410;52.114;5.718;2022-11-15T14:32:43;4.90;;;2.65;;
25503;SDS011;13410;52.114;5.718;2022-11-15T14:35:18;5.38;;;2.90;;
25503;SDS011;13410;52.114;5.718;2022-11-15T14:37:45;3.35;;;1.45;;
25503;SDS011;13410;52.114;5.718;2022-11-15T14:40:12;7.50;;;3.22;;
25503;SDS011;13410;52.114;5.718;2022-11-15T14:42:40;9.23;;;4.72;;
25503;SDS011;13410;52.114;5.718;2022-11-15T14:45:14;7.72;;;3.03;;
25503;SDS011;13410;52.114;5.718;2022-11-15T14:47:41;13.85;;;7.53;;
25503;SDS011;13410;52.114;5.718;2022-11-15T14:50:11;6.07;;;1.50;;
25503;SDS011;13410;52.114;5.718;2022-11-15T14:52:41;9.88;;;4.78;;
25503;SDS011;13410;52.114;5.718;2022-11-15T14:55:24;6.82;;;3.90;;
25503;SDS011;13410;52.114;5.718;2022-11-15T14:57:56;7.75;;;2.50;;
25503;SDS011;13410;52.114;5.718;2022-11-15T15:00:22;6.93;;;1.88;;
25503;SDS011;13410;52.114;5.718;2022-11-15T15:02:49;4.57;;;1.30;;
25503;SDS011;13410;52.114;5.718;2022-11-15T15:05:21;4.07;;;1.02;;
25503;SDS011;13410;52.114;5.718;2022-11-15T15:07:54;2.55;;;1.40;;
25503;SDS011;13410;52.114;5.718;2022-11-15T15:10:20;5.90;;;2.80;;
25503;SDS011;13410;52.114;5.718;2022-11-15T15:12:46;7.32;;;4.30;;
25503;SDS011;13410;52.114;5.718;2022-11-15T15:15:15;29.15;;;16.08;;
25503;SDS011;13410;52.114;5.718;2022-11-15T15:17:51;13.63;;;5.67;;
25503;SDS011;13410;52.114;5.718;2022-11-15T15:20:17;3.83;;;1.40;;
25503;SDS011;13410;52.114;5.718;2022-11-15T15:22:43;2.90;;;1.58;;
25503;SDS011;13410;52.114;5.718;2022-11-15T15:27:58;4.95;;;1.50;;
25503;SDS011;13410;52.114;5.718;2022-11-15T15:30:24;7.55;;;2.25;;
25503;SDS011;13410;52.114;5.718;2022-11-15T15:32:53;6.88;;;2.67;;
25503;SDS011;13410;52.114;5.718;2022-11-15T15:35:18;6.38;;;2.60;;
25503;SDS011;13410;52.114;5.718;2022-11-15T15:37:45;4.90;;;2.15;;
25503;SDS011;13410;52.114;5.718;2022-11-15T15:40:16;3.45;;;1.52;;
25503;SDS011;13410;52.114;5.718;2022-11-15T15:42:44;13.65;;;5.95;;
25503;SDS011;13410;52.114;5.718;2022-11-15T15:45:11;10.00;;;5.13;;
25503;SDS011;13410;52.114;5.718;2022-11-15T15:47:38;11.48;;;5.55;;
25503;SDS011;13410;52.114;5.718;2022-11-15T15:50:11;15.25;;;7.97;;
25503;SDS011;13410;52.114;5.718;2022-11-15T15:52:48;13.93;;;6.03;;
25503;SDS011;13410;52.114;5.718;2022-11-15T15:55:14;3.00;;;1.50;;
25503;SDS011;13410;52.114;5.718;2022-11-15T15:57:40;9.43;;;6.25;;
25503;SDS011;13410;52.114;5.718;2022-11-15T16:00:06;4.90;;;2.03;;
25503;SDS011;13410;52.114;5.718;2022-11-15T16:02:33;7.03;;;2.90;;
25503;SDS011;13410;52.114;5.718;2022-11-15T16:04:58;12.48;;;5.13;;
25503;SDS011;13410;52.114;5.718;2022-11-15T16:07:24;3.10;;;1.42;;
25503;SDS011;13410;52.114;5.718;2022-11-15T16:09:50;9.05;;;4.10;;
25503;SDS011;13410;52.114;5.718;2022-11-15T16:12:25;7.38;;;3.92;;
25503;SDS011;13410;52.114;5.718;2022-11-15T16:14:54;4.53;;;1.48;;
25503;SDS011;13410;52.114;5.718;2022-11-15T16:17:21;14.57;;;7.50;;
25503;SDS011;13410;52.114;5.718;2022-11-15T16:19:49;3.03;;;1.70;;
25503;SDS011;13410;52.114;5.718;2022-11-15T16:22:14;6.07;;;2.22;;
25503;SDS011;13410;52.114;5.718;2022-11-15T16:24:40;9.45;;;4.55;;
25503;SDS011;13410;52.114;5.718;2022-11-15T16:27:09;25.13;;;12.75;;
25503;SDS011;13410;52.114;5.718;2022-11-15T16:29:41;23.33;;;12.90;;
25503;SDS011;13410;52.114;5.718;2022-11-15T16:32:07;23.67;;;11.75;;
25503;SDS011;13410;52.114;5.718;2022-11-15T16:34:32;9.25;;;4.32;;
25503;SDS011;13410;52.114;5.718;2022-11-15T16:36:59;9.98;;;4.60;;
25503;SDS011;13410;52.114;5.718;2022-11-15T16:39:24;12.05;;;6.28;;
25503;SDS011;13410;52.114;5.718;2022-11-15T16:41:52;12.25;;;6.20;;